createdAt,value
2022-11-08T00:01:57.166Z,5.63
2022-11-08T00:06:22.701Z,5.30
2022-11-08T00:10:43.326Z,5.90
2022-11-08T00:14:47.512Z,5.97
2022-11-08T00:18:50.525Z,7.50
2022-11-08T00:22:55.156Z,7.47
2022-11-08T00:26:58.201Z,7.40
2022-11-08T00:31:35.298Z,6.57
2022-11-08T00:35:38.335Z,7.50
2022-11-08T00:39:42.995Z,9.83
2022-11-08T00:43:46.146Z,9.83
2022-11-08T00:47:49.176Z,15.47
2022-11-08T00:51:52.265Z,13.80
2022-11-08T00:56:28.904Z,39.57
2022-11-08T01:00:33.443Z,33.43
2022-11-08T01:04:36.505Z,19.70
2022-11-08T01:08:39.881Z,30.30
2022-11-08T01:12:42.928Z,31.93
2022-11-08T01:16:47.498Z,39.57
2022-11-08T01:21:21.438Z,27.63
2022-11-08T01:25:24.461Z,18.83
2022-11-08T01:29:27.492Z,13.80
2022-11-08T01:33:31.985Z,11.30
2022-11-08T01:38:06.075Z,12.30
2022-11-08T01:42:09.144Z,11.70
2022-11-08T01:46:39.413Z,13.90
2022-11-08T01:50:43.861Z,20.17
2022-11-08T01:55:17.472Z,30.57
2022-11-08T01:59:20.986Z,26.37
2022-11-08T02:03:24.186Z,23.47
2022-11-08T02:08:02.248Z,18.57
2022-11-08T02:12:06.185Z,17.10
2022-11-08T02:16:13.549Z,9.87
2022-11-08T02:20:16.801Z,20.80
2022-11-08T02:24:21.242Z,21.83
2022-11-08T02:28:24.321Z,24.23
2022-11-08T02:32:27.343Z,18.63
2022-11-08T02:36:30.353Z,18.57
2022-11-08T02:40:46.789Z,18.33
2022-11-08T02:45:09.342Z,14.83
2022-11-08T02:49:12.366Z,15.80
2022-11-08T02:53:15.705Z,20.03
2022-11-08T02:57:20.218Z,21.47
2022-11-08T03:01:23.531Z,19.93
2022-11-08T03:05:27.956Z,18.33
2022-11-08T03:09:31.148Z,21.20
2022-11-08T03:13:36.018Z,23.87
2022-11-08T03:18:10.016Z,23.97
2022-11-08T03:22:13.191Z,18.07
2022-11-08T03:26:16.178Z,11.50
2022-11-08T03:30:20.741Z,14.67
2022-11-08T03:34:59.696Z,15.43
2022-11-08T03:39:02.770Z,11.20
2022-11-08T03:43:40.877Z,11.37
2022-11-08T03:48:16.716Z,10.80
2022-11-08T03:52:21.359Z,20.27
2022-11-08T03:56:55.332Z,16.40
2022-11-08T04:01:32.115Z,18.03
2022-11-08T04:06:10.720Z,19.30
2022-11-08T04:10:14.484Z,22.97
2022-11-08T04:15:05.402Z,14.93
2022-11-08T04:19:26.031Z,14.87
2022-11-08T04:23:31.415Z,15.23
2022-11-08T04:27:34.484Z,13.57
2022-11-08T04:32:11.261Z,17.97
2022-11-08T04:36:15.768Z,12.70
2022-11-08T04:40:51.312Z,12.87
2022-11-08T04:45:24.959Z,14.33
2022-11-08T04:49:27.973Z,13.73
2022-11-08T04:54:07.732Z,16.73
2022-11-08T04:58:43.772Z,16.13
2022-11-08T05:02:46.828Z,15.73
2022-11-08T05:06:49.875Z,13.00
2022-11-08T05:10:53.228Z,17.30
2022-11-08T05:14:57.631Z,13.57
2022-11-08T05:19:00.810Z,20.80
2022-11-08T05:23:21.630Z,12.97
2022-11-08T05:27:24.656Z,14.77
2022-11-08T05:32:02.811Z,15.63
2022-11-08T05:36:07.944Z,14.43
2022-11-08T05:40:12.316Z,16.63
2022-11-08T05:44:46.219Z,13.37
2022-11-08T05:49:24.276Z,20.80
2022-11-08T05:53:58.360Z,20.73
2022-11-08T05:58:35.678Z,15.27
2022-11-08T06:03:12.410Z,13.97
2022-11-08T06:07:51.139Z,15.13
2022-11-08T06:11:54.541Z,14.73
2022-11-08T06:16:31.394Z,17.43
2022-11-08T06:21:09.464Z,15.30
2022-11-08T06:25:47.692Z,11.67
2022-11-08T06:30:18.397Z,14.33
2022-11-08T06:34:55.137Z,16.53
2022-11-08T06:39:32.044Z,19.07
2022-11-08T06:44:10.165Z,15.37
2022-11-08T06:48:13.166Z,15.03
2022-11-08T06:52:16.163Z,21.80
2022-11-08T06:56:19.194Z,20.30
2022-11-08T07:00:24.386Z,23.03
2022-11-08T07:04:27.448Z,27.57
2022-11-08T07:09:04.438Z,21.87
2022-11-08T07:13:11.326Z,21.27
2022-11-08T07:17:41.854Z,17.77
2022-11-08T07:22:20.112Z,16.73
2022-11-08T07:26:54.406Z,15.03
2022-11-08T07:31:31.280Z,16.17
2022-11-08T07:36:08.229Z,19.90
2022-11-08T07:40:46.685Z,19.80
2022-11-08T07:45:20.608Z,17.63
2022-11-08T07:49:57.391Z,16.40
2022-11-08T07:54:34.388Z,15.00
2022-11-08T07:59:12.508Z,15.90
2022-11-08T08:03:15.824Z,15.03
2022-11-08T08:07:52.702Z,17.40
2022-11-08T08:12:29.673Z,12.33
2022-11-08T08:16:36.929Z,17.80
2022-11-08T08:20:40.122Z,11.77
2022-11-08T08:24:43.115Z,13.30
2022-11-08T08:29:19.706Z,12.65
2022-11-08T08:33:58.235Z,11.77
2022-11-08T08:38:31.944Z,10.97
2022-11-08T08:42:35.420Z,10.67
2022-11-08T08:46:38.469Z,10.75
2022-11-08T08:50:43.182Z,9.37
2022-11-08T08:55:17.182Z,8.73
2022-11-08T09:04:29.671Z,7.40
2022-11-08T09:09:06.652Z,7.50
2022-11-08T09:13:44.685Z,6.63
2022-11-08T09:18:18.646Z,5.85
2022-11-08T09:22:55.627Z,5.28
2022-11-08T09:27:32.993Z,5.47
2022-11-08T09:31:51.819Z,5.18
2022-11-08T09:36:25.771Z,4.30
2022-11-08T09:41:13.337Z,4.93
2022-11-08T09:45:43.186Z,4.47
2022-11-08T09:49:56.378Z,3.92
2022-11-08T09:54:23.326Z,3.35
2022-11-08T09:59:02.323Z,3.95
2022-11-08T10:03:33.135Z,3.78
2022-11-08T10:07:59.047Z,3.30
2022-11-08T10:12:18.283Z,3.40
2022-11-08T10:16:49.578Z,3.33
2022-11-08T10:21:20.464Z,3.28
2022-11-08T10:25:30.676Z,2.70
2022-11-08T10:29:59.721Z,3.33
2022-11-08T10:34:40.414Z,3.00
2022-11-08T10:39:13.728Z,2.75
2022-11-08T10:43:51.021Z,2.97
2022-11-08T10:48:27.777Z,3.70
2022-11-08T10:53:05.436Z,3.08
2022-11-08T10:57:09.350Z,2.63
2022-11-08T11:01:18.594Z,2.92
2022-11-08T11:05:49.114Z,2.33
2022-11-08T11:10:27.342Z,2.90
2022-11-08T11:14:30.433Z,3.08
2022-11-08T11:19:15.648Z,2.40
2022-11-08T11:23:45.204Z,2.63
2022-11-08T11:28:19.284Z,2.95
2022-11-08T11:32:58.334Z,3.88
2022-11-08T11:37:40.391Z,3.38
2022-11-08T11:42:39.185Z,2.92
2022-11-08T11:46:53.752Z,3.83
2022-11-08T11:51:21.505Z,3.10
2022-11-08T11:55:34.250Z,2.80
2022-11-08T12:00:04.579Z,3.90
2022-11-08T12:04:38.110Z,3.10
2022-11-08T12:09:08.177Z,2.90
2022-11-08T12:13:40.414Z,3.05
2022-11-08T12:18:41.696Z,3.38
2022-11-08T12:23:24.631Z,2.47
2022-11-08T12:28:05.981Z,2.97
2022-11-08T12:32:44.217Z,2.50
2022-11-08T12:37:18.885Z,3.00
2022-11-08T12:41:52.516Z,2.80
2022-11-08T12:46:27.213Z,2.80
2022-11-08T12:51:01.887Z,2.90
2022-11-08T12:55:38.397Z,2.83
2022-11-08T13:00:16.261Z,2.42
2022-11-08T13:05:01.903Z,2.42
2022-11-08T13:09:38.984Z,2.28
2022-11-08T13:14:15.340Z,2.15
2022-11-08T13:18:47.973Z,2.20
2022-11-08T13:23:36.675Z,2.30
2022-11-08T13:28:34.655Z,2.70
2022-11-08T13:33:11.645Z,2.58
2022-11-08T13:37:48.190Z,2.65
2022-11-08T13:42:28.477Z,2.10
2022-11-08T13:47:28.282Z,2.35
2022-11-08T13:51:40.805Z,2.40
2022-11-08T13:55:48.667Z,2.10
2022-11-08T14:00:34.610Z,2.45
2022-11-08T14:05:16.551Z,2.28
2022-11-08T14:09:45.280Z,2.25
2022-11-08T14:14:16.729Z,2.30
2022-11-08T14:18:28.973Z,2.10
2022-11-08T14:23:14.044Z,2.17
2022-11-08T14:28:11.894Z,2.78
2022-11-08T14:32:48.624Z,3.30
2022-11-08T14:37:27.026Z,3.10
2022-11-08T14:42:03.239Z,2.60
2022-11-08T14:46:12.590Z,3.00
2022-11-08T14:50:43.304Z,2.58
2022-11-08T14:55:24.078Z,2.38
2022-11-08T14:59:35.177Z,2.40
2022-11-08T15:04:14.478Z,2.15
2022-11-08T15:08:23.060Z,2.28
2022-11-08T15:12:53.615Z,2.47
2022-11-08T15:17:33.461Z,2.30
2022-11-08T15:21:36.511Z,2.63
2022-11-08T15:25:40.429Z,2.83
2022-11-08T15:30:17.120Z,2.95
2022-11-08T15:34:58.859Z,3.33
2022-11-08T15:39:04.084Z,3.17
2022-11-08T15:43:40.378Z,2.75
2022-11-08T15:48:21.529Z,3.30
2022-11-08T15:52:51.986Z,3.10
2022-11-08T15:56:56.699Z,5.32
2022-11-08T16:01:02.134Z,3.50
2022-11-08T16:05:14.972Z,4.15
2022-11-08T16:09:44.715Z,3.40
2022-11-08T16:13:49.141Z,3.72
2022-11-08T16:17:52.382Z,4.47
2022-11-08T16:22:29.711Z,4.63
2022-11-08T16:27:27.545Z,5.22
2022-11-08T16:31:31.996Z,5.50
2022-11-08T16:36:10.887Z,5.68
2022-11-08T16:40:20.114Z,5.60
2022-11-08T16:44:23.263Z,6.47
2022-11-08T16:48:28.442Z,6.68
2022-11-08T16:53:02.021Z,5.78
2022-11-08T16:57:28.953Z,6.38
2022-11-08T17:01:33.281Z,5.53
2022-11-08T17:05:37.794Z,6.25
2022-11-08T17:10:14.384Z,6.07
2022-11-08T17:14:17.464Z,5.85
2022-11-08T17:18:21.997Z,6.80
2022-11-08T17:22:26.598Z,7.50
2022-11-08T17:27:03.432Z,7.45
2022-11-08T17:31:11.548Z,7.38
2022-11-08T17:35:15.493Z,6.95
2022-11-08T17:39:52.904Z,9.10
2022-11-08T17:43:55.917Z,7.65
2022-11-08T17:47:58.969Z,8.85
2022-11-08T17:52:01.996Z,9.55
2022-11-08T17:56:37.486Z,9.13
2022-11-08T18:00:40.581Z,9.32
2022-11-08T18:04:43.768Z,9.65
2022-11-08T18:08:46.801Z,11.40
2022-11-08T18:12:51.316Z,8.10
2022-11-08T18:16:54.437Z,8.38
2022-11-08T18:20:57.671Z,7.57
2022-11-08T18:25:00.697Z,7.43
2022-11-08T18:29:06.299Z,6.72
2022-11-08T18:33:09.446Z,8.20
2022-11-08T18:37:12.508Z,10.40
2022-11-08T18:41:17.634Z,8.10
2022-11-08T18:45:53.216Z,7.82
2022-11-08T18:49:59.529Z,8.68
2022-11-08T18:54:02.715Z,8.30
2022-11-08T18:58:39.338Z,7.63
2022-11-08T19:02:43.748Z,8.45
2022-11-08T19:06:53.123Z,7.13
2022-11-08T19:10:59.591Z,7.65
2022-11-08T19:15:02.850Z,7.07
2022-11-08T19:19:07.597Z,9.07
2022-11-08T19:23:10.644Z,7.70
2022-11-08T19:27:14.130Z,8.02
2022-11-08T19:31:19.704Z,7.17
2022-11-08T19:35:24.134Z,7.75
2022-11-08T19:39:27.765Z,7.47
2022-11-08T19:43:31.006Z,7.70
2022-11-08T19:47:33.975Z,7.13
2022-11-08T19:51:38.388Z,8.05
2022-11-08T19:55:41.497Z,7.93
2022-11-08T19:59:46.029Z,8.27
2022-11-08T20:03:50.013Z,6.72
2022-11-08T20:07:54.618Z,7.57
2022-11-08T20:12:28.726Z,8.27
2022-11-08T20:16:35.927Z,7.90
2022-11-08T20:20:43.511Z,7.00
2022-11-08T20:24:48.383Z,6.53
2022-11-08T20:28:57.016Z,16.50
2022-11-08T20:33:09.304Z,6.83
2022-11-08T20:37:14.579Z,10.98
2022-11-08T20:41:19.502Z,10.38
2022-11-08T20:45:22.534Z,8.70
2022-11-08T20:49:59.572Z,15.10
2022-11-08T20:54:02.944Z,13.83
2022-11-08T20:58:07.396Z,9.05
2022-11-08T21:02:12.408Z,8.17
2022-11-08T21:06:17.349Z,9.00
2022-11-08T21:10:41.392Z,8.50
2022-11-08T21:14:44.818Z,8.38
2022-11-08T21:18:47.967Z,8.53
2022-11-08T21:22:50.983Z,8.60
2022-11-08T21:26:53.995Z,8.70
2022-11-08T21:30:58.627Z,8.57
2022-11-08T21:35:01.957Z,8.32
2022-11-08T21:39:05.075Z,9.02
2022-11-08T21:43:08.145Z,9.00
2022-11-08T21:47:12.587Z,10.73
2022-11-08T21:51:16.273Z,9.20
2022-11-08T21:55:19.321Z,9.00
2022-11-08T21:59:23.281Z,9.73
2022-11-08T22:03:27.815Z,9.13
2022-11-08T22:07:30.919Z,8.80
2022-11-08T22:12:07.565Z,10.00
2022-11-08T22:16:10.719Z,9.30
2022-11-08T22:20:15.193Z,9.67
2022-11-08T22:24:50.364Z,10.33
2022-11-08T22:28:53.458Z,9.80
2022-11-08T22:32:56.571Z,7.73
2022-11-08T22:37:00.987Z,9.63
2022-11-08T22:41:35.001Z,9.77
2022-11-08T22:45:39.998Z,9.47
2022-11-08T22:50:16.953Z,10.43
2022-11-08T22:54:52.668Z,9.63
2022-11-08T22:58:55.744Z,9.67
2022-11-08T23:02:59.053Z,11.30
2022-11-08T23:07:02.140Z,9.73
2022-11-08T23:11:58.159Z,10.97
2022-11-08T23:16:18.336Z,10.70
2022-11-08T23:20:54.431Z,11.50
2022-11-08T23:24:57.703Z,10.47
2022-11-08T23:29:19.803Z,11.67
2022-11-08T23:33:23.076Z,10.83
2022-11-08T23:37:57.098Z,11.87
2022-11-08T23:42:17.815Z,13.30
2022-11-08T23:46:22.225Z,12.73
2022-11-08T23:50:25.265Z,12.63
2022-11-08T23:55:05.725Z,11.87
2022-11-08T23:59:09.631Z,13.07
